Time;durP1;ratioP1;P1;durP2;ratioP2;P2;SDS_P1;SDS_P2;PMS_P1;PMS_P2;Temp;Humidity;BMP_temperature;BMP_pressure;BME280_temperature;BME280_humidity;BME280_pressure;Samples;Min_cycle;Max_cycle;Signal;HPM_P1;HPM_P2
2021/05/23 00:02:25;;;;;;;5.13;1.70;;;10.60;99.90;;;;;;5011519;28;20677;-69
2021/05/23 00:04:51;;;;;;;3.37;2.10;;;10.50;99.90;;;;;;5012095;28;20176;-69
2021/05/23 00:07:24;;;;;;;2.90;1.83;;;10.50;99.90;;;;;;5011846;28;20177;-69
2021/05/23 00:09:52;;;;;;;3.63;1.60;;;10.60;99.90;;;;;;5011997;28;20438;-69
2021/05/23 00:12:18;;;;;;;5.27;1.93;;;10.60;99.90;;;;;;5011854;28;20543;-69
2021/05/23 00:14:43;;;;;;;4.00;1.80;;;10.60;99.90;;;;;;5011846;28;20425;-69
2021/05/23 00:17:09;;;;;;;2.73;1.70;;;10.50;99.90;;;;;;5011770;28;20162;-69
2021/05/23 00:19:34;;;;;;;4.33;1.40;;;10.60;99.90;;;;;;5011618;28;20182;-69
2021/05/23 00:22:00;;;;;;;2.43;1.40;;;10.60;99.90;;;;;;5011720;28;20655;-69
2021/05/23 00:24:26;;;;;;;3.13;1.50;;;10.60;99.90;;;;;;5010651;28;20164;-69
2021/05/23 00:26:52;;;;;;;2.80;1.80;;;10.60;99.90;;;;;;5011607;28;20188;-69
2021/05/23 00:29:18;;;;;;;2.30;1.40;;;10.70;99.90;;;;;;5011686;28;20249;-69
2021/05/23 00:31:44;;;;;;;1.73;1.60;;;10.60;99.90;;;;;;5011322;28;20932;-69
2021/05/23 00:34:10;;;;;;;2.60;1.73;;;10.60;99.90;;;;;;5011098;28;20182;-69
2021/05/23 00:36:35;;;;;;;2.10;1.30;;;10.70;99.90;;;;;;5011224;28;20208;-69
2021/05/23 00:39:02;;;;;;;2.40;1.70;;;10.70;99.90;;;;;;5011443;28;20398;-69
2021/05/23 00:41:28;;;;;;;2.47;1.40;;;10.70;99.90;;;;;;5011381;28;20182;-69
2021/05/23 00:43:53;;;;;;;1.77;1.50;;;10.70;99.90;;;;;;5011351;28;20881;-69
2021/05/23 00:46:19;;;;;;;2.40;1.93;;;10.70;99.90;;;;;;5011340;28;20167;-69
2021/05/23 00:48:44;;;;;;;4.50;1.60;;;10.70;99.90;;;;;;5011656;28;20236;-69
2021/05/23 00:51:10;;;;;;;3.80;2.17;;;10.70;99.90;;;;;;5011372;28;20642;-69
2021/05/23 00:53:35;;;;;;;2.90;1.40;;;10.70;99.90;;;;;;5011107;28;20646;-69
2021/05/23 00:56:01;;;;;;;1.50;1.40;;;10.70;99.90;;;;;;5011151;28;20556;-69
2021/05/23 00:58:27;;;;;;;3.63;1.53;;;10.70;99.90;;;;;;5011013;28;20166;-69
2021/05/23 01:06:08;;;;;;;2.70;1.50;;;10.70;99.90;;;;;;5151453;27;20511;-69
2021/05/23 01:08:35;;;;;;;2.03;1.40;;;10.70;99.90;;;;;;5148274;27;20417;-69
2021/05/23 01:16:53;;;;;;;2.33;1.43;;;10.70;99.90;;;;;;5152103;27;20514;-69
2021/05/23 01:22:35;;;;;;;7.23;1.70;;;10.70;99.90;;;;;;5131104;27;20513;-68
2021/05/23 01:27:45;;;;;;;2.00;1.40;;;10.70;99.90;;;;;;5110742;27;20906;-69
2021/05/23 01:30:19;;;;;;;1.40;1.30;;;10.60;99.90;;;;;;5110828;28;20422;-69
2021/05/23 01:32:47;;;;;;;2.83;1.93;;;10.60;99.90;;;;;;5110991;28;20870;-69
2021/05/23 01:35:18;;;;;;;2.90;1.37;;;10.70;99.90;;;;;;5101525;28;20426;-69
2021/05/23 01:37:48;;;;;;;2.37;1.50;;;10.70;99.90;;;;;;5090278;28;20391;-69
2021/05/23 01:40:16;;;;;;;2.57;1.87;;;10.60;99.90;;;;;;5090300;28;20410;-69
2021/05/23 01:42:42;;;;;;;2.90;2.17;;;10.60;99.90;;;;;;5090886;28;20413;-69
2021/05/23 01:45:08;;;;;;;2.17;1.60;;;10.60;99.90;;;;;;5090111;28;20454;-69
2021/05/23 01:47:34;;;;;;;8.80;1.53;;;10.70;99.90;;;;;;5090365;28;20442;-69
2021/05/23 01:50:00;;;;;;;3.97;1.23;;;10.60;99.90;;;;;;5089994;28;20400;-69
2021/05/23 01:52:26;;;;;;;2.70;1.50;;;10.60;99.90;;;;;;5089834;28;20164;-69
2021/05/23 01:54:51;;;;;;;2.67;1.67;;;10.60;99.90;;;;;;5089921;28;20194;-69
2021/05/23 01:57:17;;;;;;;3.40;1.40;;;10.60;99.90;;;;;;5090076;28;20166;-69
2021/05/23 01:59:42;;;;;;;2.37;1.77;;;10.60;99.90;;;;;;5090253;28;20211;-69
2021/05/23 02:02:08;;;;;;;3.13;1.70;;;10.60;99.90;;;;;;5090242;28;20271;-69
2021/05/23 02:04:33;;;;;;;2.53;1.57;;;10.60;99.90;;;;;;5089521;28;20530;-69
2021/05/23 02:06:59;;;;;;;2.53;1.53;;;10.60;99.90;;;;;;5089638;28;20196;-69
2021/05/23 02:09:25;;;;;;;4.40;2.07;;;10.60;99.90;;;;;;5089674;28;20162;-69
2021/05/23 02:11:55;;;;;;;1.90;1.20;;;10.60;99.90;;;;;;5089653;28;20568;-69
2021/05/23 02:14:21;;;;;;;4.43;1.40;;;10.60;99.90;;;;;;5089672;28;20159;-69
2021/05/23 02:16:46;;;;;;;2.00;1.47;;;10.60;99.90;;;;;;5090246;28;20419;-69
2021/05/23 02:19:12;;;;;;;4.13;1.87;;;10.60;99.90;;;;;;5089474;28;20426;-69
2021/05/23 02:21:37;;;;;;;1.60;1.50;;;10.60;99.90;;;;;;5089611;28;20193;-69
2021/05/23 02:24:03;;;;;;;2.00;1.90;;;10.60;99.90;;;;;;5089476;28;20214;-69
2021/05/23 02:26:29;;;;;;;3.83;2.00;;;10.60;99.90;;;;;;5089223;28;20208;-69
2021/05/23 02:28:54;;;;;;;2.87;1.70;;;10.60;99.90;;;;;;5089790;28;20468;-69
2021/05/23 02:31:20;;;;;;;2.60;1.63;;;10.60;99.90;;;;;;5089400;28;20220;-69
2021/05/23 02:33:46;;;;;;;4.30;1.70;;;10.50;99.90;;;;;;5089757;28;20176;-69
2021/05/23 02:36:12;;;;;;;3.20;1.80;;;10.50;99.90;;;;;;5089419;28;20412;-68
2021/05/23 02:38:37;;;;;;;4.60;2.40;;;10.50;99.90;;;;;;5077986;28;20245;-68
2021/05/23 02:41:03;;;;;;;2.17;1.97;;;10.50;99.90;;;;;;5075933;28;20202;-69
2021/05/23 02:43:29;;;;;;;1.77;1.67;;;10.40;99.90;;;;;;5075698;28;20684;-69
2021/05/23 02:45:55;;;;;;;3.77;2.40;;;10.50;99.90;;;;;;5075647;28;21020;-69
2021/05/23 02:48:21;;;;;;;2.83;1.97;;;10.40;99.90;;;;;;5075616;28;20390;-69
2021/05/23 02:50:50;;;;;;;2.57;1.60;;;10.40;99.90;;;;;;5080191;28;20183;-69
2021/05/23 02:53:16;;;;;;;2.20;1.87;;;10.40;99.90;;;;;;5095442;28;20447;-69
2021/05/23 02:55:44;;;;;;;2.20;2.00;;;10.30;99.90;;;;;;5095587;28;20391;-69
2021/05/23 02:58:12;;;;;;;3.40;1.80;;;10.30;99.90;;;;;;5095750;28;20220;-69
2021/05/23 03:00:38;;;;;;;3.37;2.00;;;10.30;99.90;;;;;;5095504;28;20826;-69
2021/05/23 03:03:04;;;;;;;2.93;2.53;;;10.30;99.90;;;;;;5095564;28;20410;-69
2021/05/23 03:05:30;;;;;;;5.70;2.70;;;10.30;99.90;;;;;;5082507;28;20439;-69
2021/05/23 03:07:57;;;;;;;2.57;2.37;;;10.20;99.90;;;;;;5075695;28;20926;-69
2021/05/23 03:13:02;;;;;;;3.57;2.20;;;10.30;99.90;;;;;;5131354;27;20520;-69
2021/05/23 03:15:28;;;;;;;3.13;2.60;;;10.30;99.90;;;;;;5131432;28;20450;-69
2021/05/23 03:17:55;;;;;;;3.67;2.83;;;10.30;99.90;;;;;;5131384;28;20793;-69
2021/05/23 03:20:22;;;;;;;4.10;2.60;;;10.30;99.90;;;;;;5131288;28;20783;-69
2021/05/23 03:22:52;;;;;;;3.07;2.87;;;10.30;99.90;;;;;;5131192;28;20884;-69
2021/05/23 03:25:19;;;;;;;4.00;3.53;;;10.30;99.90;;;;;;5122241;28;20404;-69
2021/05/23 03:27:45;;;;;;;4.03;3.73;;;10.30;99.90;;;;;;5110796;28;20869;-69
2021/05/23 03:30:14;;;;;;;4.53;3.67;;;10.30;99.90;;;;;;5110615;28;20393;-69
2021/05/23 03:32:40;;;;;;;4.37;3.97;;;10.30;99.90;;;;;;5110556;28;20950;-70
2021/05/23 03:35:06;;;;;;;5.60;5.20;;;10.20;99.90;;;;;;5126682;28;20419;-69
2021/05/23 03:37:32;;;;;;;5.37;4.87;;;10.20;99.90;;;;;;5130681;28;20173;-69
2021/05/23 03:39:58;;;;;;;5.77;4.50;;;10.20;99.90;;;;;;5130953;28;20377;-69
2021/05/23 03:42:24;;;;;;;5.83;5.43;;;10.20;99.90;;;;;;5120464;28;20413;-69
2021/05/23 03:44:49;;;;;;;6.87;5.07;;;10.20;99.90;;;;;;5110283;28;20527;-69
2021/05/23 03:47:15;;;;;;;6.37;5.77;;;10.20;99.90;;;;;;5110318;28;20183;-69
2021/05/23 03:49:40;;;;;;;6.90;6.30;;;10.20;99.90;;;;;;5110066;28;20244;-70
2021/05/23 03:52:08;;;;;;;7.90;6.40;;;10.20;99.90;;;;;;5110014;28;20247;-69
2021/05/23 03:54:34;;;;;;;6.93;6.37;;;10.20;99.90;;;;;;5110037;28;20157;-70
2021/05/23 03:56:59;;;;;;;6.70;6.07;;;10.20;99.90;;;;;;5110094;28;20451;-69
2021/05/23 03:59:25;;;;;;;6.63;6.13;;;10.20;99.90;;;;;;5110748;28;20199;-69
2021/05/23 04:01:51;;;;;;;6.60;5.67;;;10.20;99.90;;;;;;5110031;28;20164;-69
2021/05/23 04:04:20;;;;;;;6.13;5.63;;;10.20;99.90;;;;;;5113507;28;20177;-69
2021/05/23 04:06:46;;;;;;;6.73;6.07;;;10.20;99.90;;;;;;5130471;27;20933;-69
2021/05/23 04:09:11;;;;;;;6.33;5.93;;;10.20;99.90;;;;;;5130121;28;20415;-69
2021/05/23 04:11:40;;;;;;;7.40;6.83;;;10.20;99.90;;;;;;5130085;28;20207;-69
2021/05/23 04:14:06;;;;;;;7.00;6.40;;;10.30;99.90;;;;;;5130809;27;20154;-69
2021/05/23 04:16:33;;;;;;;10.03;7.23;;;10.30;99.90;;;;;;5119006;28;20419;-69
2021/05/23 04:18:59;;;;;;;7.73;7.13;;;10.30;99.90;;;;;;5109671;28;20529;-69
2021/05/23 04:21:25;;;;;;;8.10;7.50;;;10.30;99.90;;;;;;5109785;28;20397;-70
2021/05/23 04:23:50;;;;;;;8.30;7.60;;;10.30;99.90;;;;;;5099151;28;20212;-70
2021/05/23 04:26:16;;;;;;;9.00;8.30;;;10.30;99.90;;;;;;5095924;28;20166;-69
2021/05/23 04:28:41;;;;;;;8.60;7.80;;;10.30;99.90;;;;;;5096463;28;20160;-68
2021/05/23 04:31:07;;;;;;;7.23;6.63;;;10.30;99.90;;;;;;5095724;28;20183;-68
2021/05/23 04:33:33;;;;;;;7.87;7.07;;;10.30;99.90;;;;;;5099824;28;20178;-69
2021/05/23 04:35:58;;;;;;;7.50;6.70;;;10.30;99.90;;;;;;5098067;28;20218;-68
2021/05/23 04:38:24;;;;;;;8.33;7.40;;;10.30;99.90;;;;;;5095476;28;20168;-68
2021/05/23 04:40:49;;;;;;;7.73;7.13;;;10.30;99.90;;;;;;5095829;28;20159;-68
2021/05/23 04:43:15;;;;;;;9.83;8.97;;;10.30;99.90;;;;;;5095876;28;20248;-69
2021/05/23 04:45:41;;;;;;;9.77;8.80;;;10.30;99.90;;;;;;5095301;28;20155;-68
2021/05/23 04:48:07;;;;;;;12.00;10.33;;;10.40;99.90;;;;;;5095526;28;20424;-69
2021/05/23 04:50:34;;;;;;;12.03;10.87;;;10.40;99.90;;;;;;5106624;28;20235;-68
2021/05/23 04:52:59;;;;;;;12.53;11.27;;;10.40;99.90;;;;;;5115898;28;20405;-68
2021/05/23 04:55:25;;;;;;;12.07;10.97;;;10.40;99.90;;;;;;5115790;28;20869;-69
2021/05/23 04:57:51;;;;;;;10.80;9.90;;;10.40;99.90;;;;;;5116389;28;20595;-68
2021/05/23 05:00:17;;;;;;;13.97;12.40;;;10.40;99.90;;;;;;5115885;28;20191;-68
2021/05/23 05:02:43;;;;;;;12.27;11.07;;;10.40;99.90;;;;;;5115786;28;20173;-69
2021/05/23 05:05:11;;;;;;;12.60;11.50;;;10.40;99.90;;;;;;5102012;28;20413;-68
2021/05/23 05:07:36;;;;;;;12.87;11.57;;;10.40;99.90;;;;;;5095862;28;20857;-68
2021/05/23 05:10:04;;;;;;;15.07;12.20;;;10.40;99.90;;;;;;5095282;28;20433;-68
2021/05/23 05:12:29;;;;;;;13.57;12.23;;;10.50;99.90;;;;;;5095372;28;20687;-68
2021/05/23 05:14:55;;;;;;;13.30;12.00;;;10.50;99.90;;;;;;5095149;28;20481;-69
2021/05/23 05:17:20;;;;;;;15.00;12.30;;;10.50;99.90;;;;;;5095111;28;20159;-69
2021/05/23 05:19:47;;;;;;;12.03;10.80;;;10.50;99.90;;;;;;5095279;28;20169;-69
2021/05/23 05:22:12;;;;;;;13.23;11.97;;;10.50;99.90;;;;;;5094922;28;20157;-69
2021/05/23 05:24:38;;;;;;;14.00;12.27;;;10.50;99.90;;;;;;5095626;28;20418;-69
2021/05/23 05:27:04;;;;;;;14.40;10.97;;;10.50;99.90;;;;;;5095368;28;20176;-69
2021/05/23 05:29:30;;;;;;;11.13;10.10;;;10.60;99.90;;;;;;5094817;28;20533;-68
2021/05/23 05:31:55;;;;;;;10.43;9.53;;;10.60;99.90;;;;;;5094581;28;20452;-68
2021/05/23 05:34:21;;;;;;;11.50;10.50;;;10.50;99.90;;;;;;5111529;28;20170;-69
2021/05/23 05:36:47;;;;;;;11.70;9.10;;;10.50;99.90;;;;;;5094559;28;20238;-68
2021/05/23 05:39:12;;;;;;;9.13;8.33;;;10.50;99.90;;;;;;5094774;28;20164;-68
2021/05/23 05:41:38;;;;;;;9.17;8.30;;;10.50;99.90;;;;;;5106622;28;20168;-68
2021/05/23 05:44:04;;;;;;;8.43;7.70;;;10.50;99.90;;;;;;5114970;28;20166;-69
2021/05/23 05:46:30;;;;;;;7.80;7.20;;;10.50;99.90;;;;;;5115016;28;20180;-68
2021/05/23 05:48:55;;;;;;;8.53;7.73;;;10.50;99.90;;;;;;5114792;28;20428;-68
2021/05/23 05:51:21;;;;;;;9.10;7.17;;;10.50;99.90;;;;;;5114759;28;20202;-69
2021/05/23 05:53:47;;;;;;;8.80;7.13;;;10.50;99.90;;;;;;5114795;28;20236;-69
2021/05/23 05:56:12;;;;;;;8.67;6.50;;;10.40;99.90;;;;;;5114824;28;20213;-69
2021/05/23 05:58:38;;;;;;;7.00;6.03;;;10.40;99.90;;;;;;5113724;28;20242;-68
2021/05/23 06:01:04;;;;;;;6.27;5.27;;;10.40;99.90;;;;;;5114475;28;20261;-69
2021/05/23 06:03:29;;;;;;;9.17;4.90;;;10.30;99.90;;;;;;5112766;28;20163;-69
2021/05/23 06:05:55;;;;;;;7.00;4.53;;;10.30;99.90;;;;;;5094096;28;20187;-69
2021/05/23 06:08:21;;;;;;;11.00;5.33;;;10.30;99.90;;;;;;5094009;28;20154;-70
2021/05/23 06:10:48;;;;;;;4.93;3.93;;;10.30;99.90;;;;;;5093957;28;20151;-69
2021/05/23 06:13:14;;;;;;;8.37;5.30;;;10.30;99.90;;;;;;5093867;28;20416;-69
2021/05/23 06:15:39;;;;;;;4.90;3.60;;;10.40;99.90;;;;;;5105934;28;20407;-69
2021/05/23 06:18:05;;;;;;;4.87;3.57;;;10.40;99.90;;;;;;5114209;28;20450;-69
2021/05/23 06:20:30;;;;;;;4.63;3.50;;;10.40;99.90;;;;;;5114508;28;20151;-69
2021/05/23 06:22:56;;;;;;;5.77;3.33;;;10.40;99.90;;;;;;5114291;28;20161;-69
2021/05/23 06:25:22;;;;;;;4.30;3.10;;;10.30;99.90;;;;;;5114710;28;20625;-70
2021/05/23 06:27:48;;;;;;;7.00;3.40;;;10.40;99.90;;;;;;5113970;28;20174;-70
2021/05/23 06:30:14;;;;;;;5.80;3.20;;;10.30;99.90;;;;;;5114431;28;20409;-69
2021/05/23 06:32:40;;;;;;;4.20;2.77;;;10.40;99.90;;;;;;5113066;28;20182;-70
2021/05/23 06:35:06;;;;;;;4.70;3.10;;;10.40;99.90;;;;;;5098992;28;20768;-69
2021/05/23 06:37:31;;;;;;;5.07;3.90;;;10.40;99.90;;;;;;5093727;28;20421;-69
2021/05/23 06:39:57;;;;;;;7.17;4.53;;;10.40;99.90;;;;;;5093858;28;20396;-69
2021/05/23 06:42:23;;;;;;;4.77;3.70;;;10.40;99.90;;;;;;5093408;28;20651;-69
2021/05/23 06:44:48;;;;;;;7.23;3.90;;;10.40;99.90;;;;;;5093327;28;20179;-69
2021/05/23 06:47:14;;;;;;;5.43;3.60;;;10.40;99.90;;;;;;5093135;28;20262;-69
2021/05/23 06:49:39;;;;;;;3.83;3.17;;;10.40;99.90;;;;;;5093919;28;20184;-69
2021/05/23 06:52:05;;;;;;;6.40;4.17;;;10.30;99.90;;;;;;5093428;28;20195;-69
2021/05/23 06:54:31;;;;;;;12.60;5.20;;;10.30;99.90;;;;;;5093749;28;20268;-69
2021/05/23 06:56:56;;;;;;;6.30;4.50;;;10.40;99.90;;;;;;5093574;28;20253;-69
2021/05/23 06:59:23;;;;;;;9.30;4.03;;;10.30;99.90;;;;;;5093045;28;20234;-69
2021/05/23 07:01:49;;;;;;;9.33;5.07;;;10.30;99.90;;;;;;5093493;28;20168;-69
2021/05/23 07:04:16;;;;;;;5.30;3.70;;;10.30;99.90;;;;;;5093171;28;20424;-70
2021/05/23 07:06:41;;;;;;;5.37;3.50;;;10.30;99.90;;;;;;5093768;28;20465;-69
2021/05/23 07:09:07;;;;;;;5.30;3.53;;;10.30;99.90;;;;;;5093283;28;20506;-69
2021/05/23 07:11:33;;;;;;;5.87;3.77;;;10.40;99.90;;;;;;5092941;28;20206;-69
2021/05/23 07:13:58;;;;;;;4.70;4.00;;;10.50;99.90;;;;;;5093102;28;20158;-69
2021/05/23 07:16:24;;;;;;;8.97;3.80;;;10.60;99.90;;;;;;5093209;28;20178;-69
2021/05/23 07:18:49;;;;;;;5.73;3.73;;;10.80;99.90;;;;;;5093048;28;20299;-69
2021/05/23 07:21:15;;;;;;;6.27;3.60;;;11.00;99.90;;;;;;5093098;28;20161;-69
2021/05/23 07:23:41;;;;;;;6.10;3.40;;;11.20;99.90;;;;;;5093940;28;20261;-69
2021/05/23 07:26:06;;;;;;;4.90;3.43;;;11.50;99.90;;;;;;5093015;28;20173;-70
2021/05/23 07:28:33;;;;;;;13.60;3.40;;;11.80;99.90;;;;;;5093074;28;20159;-69
2021/05/23 07:31:00;;;;;;;4.40;3.27;;;12.20;99.90;;;;;;5113475;28;20688;-69
2021/05/23 07:33:26;;;;;;;4.27;2.43;;;12.70;99.90;;;;;;5113060;28;20411;-69
2021/05/23 07:35:51;;;;;;;5.70;2.43;;;13.40;99.90;;;;;;5113363;28;20404;-69
2021/05/23 07:38:17;;;;;;;6.60;3.37;;;13.90;99.90;;;;;;5113614;28;20178;-69
2021/05/23 07:40:42;;;;;;;3.33;2.13;;;14.50;99.90;;;;;;5112494;28;20695;-69
2021/05/23 07:43:08;;;;;;;4.50;3.17;;;15.40;99.90;;;;;;5113214;28;20185;-69
2021/05/23 07:45:34;;;;;;;3.63;2.23;;;16.00;99.90;;;;;;5113162;28;20161;-69
2021/05/23 07:47:59;;;;;;;3.63;1.90;;;16.30;99.90;;;;;;5112983;28;20252;-69
2021/05/23 07:50:25;;;;;;;14.13;2.50;;;16.90;99.90;;;;;;5113144;28;20166;-69
2021/05/23 07:52:51;;;;;;;5.73;2.47;;;18.00;99.90;;;;;;5113355;28;20186;-69
2021/05/23 07:55:17;;;;;;;8.13;2.10;;;19.20;99.90;;;;;;5113102;28;20162;-69
2021/05/23 07:57:44;;;;;;;6.43;1.60;;;20.60;99.30;;;;;;5112553;28;20174;-70
2021/05/23 08:00:10;;;;;;;4.43;1.73;;;21.70;93.70;;;;;;5102828;28;20519;-69
2021/05/23 08:02:35;;;;;;;4.73;1.50;;;22.40;85.50;;;;;;5096563;28;20483;-69
2021/05/23 08:05:02;;;;;;;4.27;1.57;;;22.90;79.40;;;;;;5096425;28;20470;-69
2021/05/23 08:07:28;;;;;;;4.37;1.63;;;23.20;76.20;;;;;;5096778;28;20151;-68
2021/05/23 08:09:54;;;;;;;6.33;1.87;;;23.80;70.90;;;;;;5096219;28;20730;-69
2021/05/23 08:12:19;;;;;;;2.57;1.50;;;24.70;64.90;;;;;;5096120;28;20571;-69
2021/05/23 08:14:45;;;;;;;3.47;1.40;;;25.60;60.20;;;;;;5108760;28;20503;-69
2021/05/23 08:17:12;;;;;;;1.30;0.90;;;26.50;55.50;;;;;;5116696;28;20245;-69
2021/05/23 08:19:38;;;;;;;5.03;1.30;;;27.60;49.40;;;;;;5116798;28;20471;-70
2021/05/23 08:22:03;;;;;;;4.17;1.40;;;28.50;47.50;;;;;;5116879;28;20419;-70
2021/05/23 08:24:31;;;;;;;2.57;1.23;;;28.90;42.40;;;;;;5116614;28;20154;-70
2021/05/23 08:26:57;;;;;;;3.50;1.10;;;29.40;42.00;;;;;;5116658;27;20525;-70
2021/05/23 08:29:24;;;;;;;2.27;1.00;;;29.80;39.40;;;;;;5106487;28;20421;-70
2021/05/23 08:31:49;;;;;;;4.63;1.40;;;29.60;38.70;;;;;;5109118;28;20447;-70
2021/05/23 08:34:15;;;;;;;3.83;1.30;;;28.50;38.00;;;;;;5116720;28;20794;-70
2021/05/23 08:36:40;;;;;;;7.53;1.90;;;27.40;41.00;;;;;;5116558;28;20161;-70
2021/05/23 08:39:06;;;;;;;2.87;1.80;;;26.60;42.90;;;;;;5116310;28;20513;-70
2021/05/23 08:41:32;;;;;;;4.50;1.20;;;26.10;43.40;;;;;;5116188;28;20154;-70
2021/05/23 08:43:58;;;;;;;6.33;1.50;;;25.40;44.00;;;;;;5116264;28;20650;-70
2021/05/23 08:46:29;;;;;;;2.00;1.03;;;24.90;45.20;;;;;;5116256;28;20166;-70
2021/05/23 08:48:56;;;;;;;5.77;1.57;;;24.30;46.60;;;;;;5115317;27;20205;-70
2021/05/23 08:51:23;;;;;;;3.10;1.50;;;23.90;47.10;;;;;;5116791;28;20462;-70
2021/05/23 08:53:48;;;;;;;2.47;1.00;;;23.70;48.10;;;;;;5115836;28;20391;-70
2021/05/23 08:56:14;;;;;;;2.33;1.13;;;24.00;47.00;;;;;;5116014;28;20502;-70
2021/05/23 08:58:39;;;;;;;4.60;1.30;;;24.10;46.80;;;;;;5104976;28;20194;-70
2021/05/23 09:01:05;;;;;;;5.10;1.30;;;23.90;46.50;;;;;;5095705;28;20215;-70
2021/05/23 09:03:30;;;;;;;3.27;1.40;;;23.30;46.30;;;;;;5096030;28;20220;-70
2021/05/23 09:05:56;;;;;;;6.67;1.70;;;22.50;46.50;;;;;;5096497;28;20635;-70
2021/05/23 09:08:26;;;;;;;6.87;1.70;;;21.70;47.00;;;;;;5095233;28;20163;-70
2021/05/23 09:10:54;;;;;;;4.77;1.53;;;21.10;51.40;;;;;;5094959;28;20209;-70
2021/05/23 09:16:07;;;;;;;6.87;1.50;;;21.40;50.60;;;;;;5131733;27;20542;-71
2021/05/23 09:21:19;;;;;;;2.43;1.27;;;23.10;47.40;;;;;;5090067;28;20503;-71
2021/05/23 09:26:24;;;;;;;3.93;1.03;;;24.60;45.10;;;;;;5110902;27;20510;-69
2021/05/23 09:28:51;;;;;;;3.20;1.50;;;25.30;42.60;;;;;;5110678;28;20445;-70
2021/05/23 09:31:19;;;;;;;6.40;1.33;;;24.70;43.20;;;;;;5111046;28;20869;-70
2021/05/23 09:33:49;;;;;;;3.37;1.47;;;24.00;43.70;;;;;;5111399;28;20889;-70
2021/05/23 09:36:15;;;;;;;8.00;1.10;;;23.20;44.70;;;;;;5110758;28;20388;-69
2021/05/23 09:39:00;;;;;;;3.70;1.20;;;22.70;46.70;;;;;;5109839;28;20412;-69
2021/05/23 09:41:31;;;;;;;2.70;1.27;;;22.10;47.20;;;;;;5110628;28;20398;-69
2021/05/23 09:44:18;;;;;;;4.73;1.40;;;21.70;48.70;;;;;;5110838;28;20388;-69
2021/05/23 09:47:00;;;;;;;3.13;1.30;;;21.30;49.20;;;;;;5109859;28;20464;-69
2021/05/23 09:49:28;;;;;;;2.27;1.00;;;21.10;51.30;;;;;;5110728;28;20780;-69
2021/05/23 09:54:59;;;;;;;2.27;0.97;;;21.10;50.90;;;;;;5110977;27;21079;-70
2021/05/23 09:57:25;;;;;;;3.40;1.57;;;21.00;50.90;;;;;;5092152;28;20411;-71
2021/05/23 10:00:12;;;;;;;2.10;1.07;;;21.00;51.50;;;;;;5106976;28;20561;-71
2021/05/23 10:02:54;;;;;;;3.23;1.40;;;20.90;51.10;;;;;;5110290;28;20863;-71
2021/05/23 10:05:20;;;;;;;3.60;1.10;;;20.80;50.40;;;;;;5110706;28;20388;-70
2021/05/23 10:07:46;;;;;;;1.97;1.43;;;20.80;50.60;;;;;;5110804;28;20481;-70
2021/05/23 10:10:12;;;;;;;2.87;1.40;;;20.70;50.30;;;;;;5110674;28;20420;-70
2021/05/23 10:12:38;;;;;;;2.60;1.00;;;20.60;50.50;;;;;;5106929;28;20702;-70
2021/05/23 10:15:05;;;;;;;2.50;1.60;;;20.50;51.00;;;;;;5098935;28;20435;-70
2021/05/23 10:17:35;;;;;;;3.07;1.40;;;20.40;52.10;;;;;;5111455;28;20159;-70
2021/05/23 10:20:04;;;;;;;1.90;0.93;;;20.20;50.40;;;;;;5110569;28;20387;-70
2021/05/23 10:22:36;;;;;;;3.20;1.87;;;20.10;51.50;;;;;;5103369;28;20485;-70
2021/05/23 10:25:07;;;;;;;1.80;0.90;;;20.00;51.90;;;;;;5090033;28;20433;-70
2021/05/23 10:27:37;;;;;;;6.87;1.53;;;20.10;52.90;;;;;;5089949;28;20400;-70
2021/05/23 10:30:05;;;;;;;2.03;0.90;;;20.20;52.50;;;;;;5097067;28;20419;-70
2021/05/23 10:32:33;;;;;;;9.63;1.30;;;20.10;51.10;;;;;;5110255;28;20452;-70
2021/05/23 10:35:13;;;;;;;4.37;1.30;;;20.00;51.20;;;;;;5110268;28;20400;-70
2021/05/23 10:37:39;;;;;;;3.90;1.47;;;19.80;51.30;;;;;;5110189;28;20475;-70
2021/05/23 10:40:17;;;;;;;4.13;1.67;;;19.40;51.00;;;;;;5110080;28;20385;-70
2021/05/23 10:42:56;;;;;;;5.50;1.27;;;19.30;53.50;;;;;;5110083;28;20410;-70
2021/05/23 10:48:12;;;;;;;1.80;1.13;;;19.10;52.80;;;;;;5095224;27;20867;-70
2021/05/23 10:50:39;;;;;;;1.83;1.00;;;18.90;52.80;;;;;;5090685;28;20885;-70
2021/05/23 10:53:06;;;;;;;5.80;1.50;;;18.70;53.20;;;;;;5090321;28;20416;-70
2021/05/23 10:55:32;;;;;;;4.47;1.50;;;18.70;53.00;;;;;;5090367;28;20762;-70
2021/05/23 10:57:58;;;;;;;2.83;1.47;;;18.60;53.80;;;;;;5090447;28;20464;-70
2021/05/23 11:03:11;;;;;;;3.00;1.40;;;18.40;53.00;;;;;;5152122;27;20507;-69
2021/05/23 11:05:37;;;;;;;3.37;1.50;;;18.10;54.60;;;;;;5152099;27;20780;-69
2021/05/23 11:08:05;;;;;;;1.70;1.33;;;18.00;54.90;;;;;;5152051;27;20397;-69
2021/05/23 11:10:40;;;;;;;2.97;1.20;;;18.00;54.40;;;;;;5152073;27;20186;-69
2021/05/23 11:13:07;;;;;;;1.33;1.10;;;18.00;54.60;;;;;;5152074;27;20878;-69
2021/05/23 11:15:49;;;;;;;2.40;1.17;;;17.90;54.10;;;;;;5152425;27;20395;-69
2021/05/23 11:18:18;;;;;;;2.07;1.10;;;17.90;55.80;;;;;;5151997;27;20757;-69
2021/05/23 11:23:32;;;;;;;2.57;1.00;;;17.50;54.20;;;;;;5090389;28;20588;-69
2021/05/23 11:26:15;;;;;;;2.47;0.90;;;17.30;53.80;;;;;;5090518;28;20737;-69
2021/05/23 11:28:48;;;;;;;4.50;1.20;;;17.40;54.10;;;;;;5091059;28;20898;-69
2021/05/23 11:31:18;;;;;;;1.10;0.80;;;17.50;53.90;;;;;;5089556;28;20769;-69
2021/05/23 11:33:48;;;;;;;2.27;0.90;;;17.70;54.10;;;;;;5070036;28;20444;-69
2021/05/23 11:36:22;;;;;;;2.43;1.10;;;17.80;52.60;;;;;;5070014;28;20394;-69
2021/05/23 11:38:48;;;;;;;2.00;1.00;;;17.90;53.30;;;;;;5069310;28;20450;-69
2021/05/23 11:41:15;;;;;;;2.87;1.23;;;17.80;52.50;;;;;;5069904;28;20382;-69
2021/05/23 11:43:41;;;;;;;1.20;0.90;;;17.70;53.10;;;;;;5070934;28;20569;-69
2021/05/23 11:46:06;;;;;;;1.90;1.20;;;17.60;54.30;;;;;;5069870;28;20386;-69
2021/05/23 11:48:38;;;;;;;3.33;1.10;;;17.70;54.00;;;;;;5069782;28;20155;-69
2021/05/23 11:51:05;;;;;;;2.30;1.30;;;17.80;54.10;;;;;;5069915;28;20152;-69
2021/05/23 11:53:52;;;;;;;5.17;1.10;;;17.90;53.80;;;;;;5070107;28;20425;-69
2021/05/23 11:56:20;;;;;;;2.23;1.50;;;17.90;52.60;;;;;;5052241;28;20411;-69
2021/05/23 11:58:50;;;;;;;2.80;0.90;;;18.00;52.90;;;;;;5050174;28;20430;-69
2021/05/23 12:01:21;;;;;;;4.50;2.03;;;17.90;52.40;;;;;;5049699;28;20768;-69
2021/05/23 12:04:09;;;;;;;3.33;1.50;;;17.90;52.80;;;;;;5049819;28;20391;-69
2021/05/23 12:06:39;;;;;;;3.40;1.27;;;17.90;53.10;;;;;;5048675;28;20429;-69
2021/05/23 12:09:09;;;;;;;4.97;1.20;;;17.90;52.90;;;;;;5049565;28;20919;-69
2021/05/23 12:11:56;;;;;;;2.13;1.30;;;17.80;52.80;;;;;;5050476;28;20421;-69
2021/05/23 12:22:20;;;;;;;6.60;1.20;;;17.70;52.80;;;;;;5110584;27;20543;-69
2021/05/23 12:24:47;;;;;;;3.20;1.67;;;17.70;52.50;;;;;;5111056;28;20797;-69
2021/05/23 12:27:32;;;;;;;3.03;1.53;;;17.60;53.20;;;;;;5111465;28;20373;-69
2021/05/23 12:33:02;;;;;;;2.57;1.00;;;17.40;53.40;;;;;;5110783;27;20509;-69
2021/05/23 12:35:29;;;;;;;2.13;1.30;;;17.40;54.40;;;;;;5111017;28;20391;-69
2021/05/23 12:37:59;;;;;;;2.40;1.20;;;17.40;54.10;;;;;;5110895;28;20983;-69
2021/05/23 12:40:30;;;;;;;5.53;1.50;;;17.40;54.60;;;;;;5111045;28;20463;-69
2021/05/23 12:48:46;;;;;;;2.80;1.20;;;17.30;52.90;;;;;;5111136;27;20513;-68
2021/05/23 12:51:15;;;;;;;3.57;1.10;;;17.10;52.50;;;;;;5110923;28;20388;-68
2021/05/23 12:53:44;;;;;;;2.43;0.90;;;17.00;52.80;;;;;;5110689;28;20924;-68
2021/05/23 13:01:24;;;;;;;1.20;0.90;;;17.10;54.40;;;;;;5090597;28;20569;-68
2021/05/23 13:03:55;;;;;;;3.00;1.10;;;17.00;53.70;;;;;;5076795;28;20480;-68
2021/05/23 13:06:22;;;;;;;1.87;1.60;;;17.00;54.00;;;;;;5088696;28;20411;-68
2021/05/23 13:09:04;;;;;;;5.70;2.73;;;16.90;52.70;;;;;;5090513;28;20397;-68
2021/05/23 13:11:31;;;;;;;5.33;1.17;;;16.80;52.90;;;;;;5090753;28;20389;-68
2021/05/23 13:13:57;;;;;;;2.13;0.87;;;16.80;53.80;;;;;;5090481;28;20392;-68
2021/05/23 13:16:23;;;;;;;2.23;1.20;;;16.70;52.90;;;;;;5090339;28;20941;-68
2021/05/23 13:18:48;;;;;;;2.17;1.67;;;16.60;52.90;;;;;;5090220;28;20616;-68
2021/05/23 13:21:17;;;;;;;1.97;1.50;;;16.70;53.30;;;;;;5072875;28;20279;-68
2021/05/23 13:23:45;;;;;;;2.97;0.90;;;16.70;53.70;;;;;;5070130;28;20163;-68
2021/05/23 13:26:13;;;;;;;1.97;1.20;;;16.70;53.90;;;;;;5070498;28;20414;-68
2021/05/23 13:28:38;;;;;;;2.70;1.03;;;16.80;55.10;;;;;;5069785;28;20398;-68
2021/05/23 13:31:04;;;;;;;3.13;1.60;;;16.80;54.30;;;;;;5069918;28;20401;-68
2021/05/23 13:33:30;;;;;;;1.80;1.10;;;16.90;55.30;;;;;;5089246;28;20175;-68
2021/05/23 13:35:55;;;;;;;3.33;0.90;;;16.90;52.80;;;;;;5089763;28;20685;-68
2021/05/23 13:38:21;;;;;;;3.13;0.80;;;17.00;54.20;;;;;;5071982;28;20194;-68
2021/05/23 13:40:46;;;;;;;7.33;1.00;;;17.10;54.50;;;;;;5069877;28;20671;-69
2021/05/23 13:43:12;;;;;;;3.20;1.27;;;17.20;53.20;;;;;;5069681;28;20163;-68
2021/05/23 13:45:37;;;;;;;2.40;1.13;;;17.20;53.40;;;;;;5069611;28;20160;-68
2021/05/23 13:48:03;;;;;;;1.70;1.17;;;17.10;52.60;;;;;;5069622;28;20541;-68